Time;durP1;ratioP1;P1;durP2;ratioP2;P2;SDS_P1;SDS_P2;PMS_P1;PMS_P2;Temp;Humidity;BMP_temperature;BMP_pressure;BME280_temperature;BME280_humidity;BME280_pressure;Samples;Min_cycle;Max_cycle;Signal;HPM_P1;HPM_P2
2024/01/12 00:01:29;;;;;;;36.83;15.67;;;;;;;-1.00;85.92;100212.77;123372;1099;104391;-76
2024/01/12 00:04:00;;;;;;;37.63;15.67;;;;;;;-1.00;86.25;100206.73;123198;1099;104281;-77
2024/01/12 00:06:31;;;;;;;36.83;16.37;;;;;;;-1.00;85.60;100211.88;123442;1099;104248;-76
2024/01/12 00:09:03;;;;;;;34.67;15.60;;;;;;;-0.99;85.88;100208.53;123424;1099;104204;-76
2024/01/12 00:11:34;;;;;;;36.25;15.25;;;;;;;-0.99;85.42;100226.56;123407;1099;105476;-76
2024/01/12 00:14:06;;;;;;;38.10;15.63;;;;;;;-1.01;86.09;100228.10;123455;1097;104303;-77
2024/01/12 00:16:37;;;;;;;36.83;16.23;;;;;;;-1.02;85.19;100224.64;123382;1099;104360;-78
2024/01/12 00:19:08;;;;;;;35.37;16.30;;;;;;;-1.00;85.30;100227.33;123409;1099;104271;-78
2024/01/12 00:21:39;;;;;;;32.77;15.47;;;;;;;-1.03;85.20;100217.68;123236;1099;104285;-77
2024/01/12 00:24:11;;;;;;;42.57;16.80;;;;;;;-1.05;85.46;100226.09;123444;1099;104268;-77
2024/01/12 00:26:42;;;;;;;40.15;17.15;;;;;;;-1.11;85.46;100227.42;123408;1099;104424;-77
2024/01/12 00:29:13;;;;;;;35.00;15.63;;;;;;;-1.14;86.07;100242.63;123431;1098;104369;-77
2024/01/12 00:31:45;;;;;;;37.33;17.13;;;;;;;-1.22;86.38;100230.81;123297;1099;104351;-77
2024/01/12 00:34:16;;;;;;;35.70;16.47;;;;;;;-1.23;86.57;100247.06;123537;1099;104351;-76
2024/01/12 00:36:48;;;;;;;42.30;18.45;;;;;;;-1.27;86.80;100230.45;123397;1099;104680;-77
2024/01/12 00:39:19;;;;;;;35.60;16.17;;;;;;;-1.27;86.39;100225.30;123393;1098;104660;-76
2024/01/12 00:41:52;;;;;;;39.80;16.95;;;;;;;-1.25;86.43;100235.72;123160;1098;104379;-76
2024/01/12 00:44:23;;;;;;;42.15;17.20;;;;;;;-1.25;86.12;100230.58;123420;1099;104347;-76
2024/01/12 00:46:55;;;;;;;40.07;18.13;;;;;;;-1.21;86.17;100234.31;123381;1099;104348;-77
2024/01/12 00:49:26;;;;;;;38.30;17.20;;;;;;;-1.21;85.48;100234.31;123429;1099;104200;-77
2024/01/12 00:51:57;;;;;;;39.90;17.57;;;;;;;-1.21;85.89;100235.20;123403;1099;104546;-77
2024/01/12 00:54:28;;;;;;;39.70;18.13;;;;;;;-1.17;86.43;100228.59;123537;1099;104274;-76
2024/01/12 00:57:00;;;;;;;41.55;18.10;;;;;;;-1.16;86.75;100220.99;123511;1099;104706;-77
2024/01/12 00:59:31;;;;;;;36.67;16.80;;;;;;;-1.17;86.17;100229.52;123497;1099;104245;-76
2024/01/12 01:02:02;;;;;;;41.13;17.13;;;;;;;-1.18;86.52;100225.14;123068;1099;104306;-77
2024/01/12 01:04:33;;;;;;;38.60;15.87;;;;;;;-1.17;86.85;100231.17;123143;1099;104376;-77
2024/01/12 01:07:04;;;;;;;35.43;14.97;;;;;;;-1.18;86.83;100222.56;123110;1099;104425;-77
2024/01/12 01:09:35;;;;;;;38.50;17.13;;;;;;;-1.16;86.81;100230.41;123391;1098;104296;-77
2024/01/12 01:12:08;;;;;;;38.63;17.00;;;;;;;-1.16;86.71;100236.44;123359;1099;104275;-76
2024/01/12 01:14:39;;;;;;;37.13;16.20;;;;;;;-1.15;87.46;100238.25;123957;1099;104354;-77
2024/01/12 01:17:11;;;;;;;38.87;17.77;;;;;;;-1.13;86.88;100228.95;123408;1099;104357;-77
2024/01/12 01:19:42;;;;;;;38.13;17.43;;;;;;;-1.12;86.13;100233.34;123430;1099;104351;-76
2024/01/12 01:22:13;;;;;;;37.20;17.37;;;;;;;-1.10;86.67;100239.50;123449;1099;104347;-76
2024/01/12 01:24:44;;;;;;;42.83;17.87;;;;;;;-1.09;86.59;100219.81;123485;1099;104349;-76
2024/01/12 01:27:15;;;;;;;36.13;17.33;;;;;;;-1.07;87.26;100232.81;123582;1099;104249;-76
2024/01/12 01:29:47;;;;;;;41.70;18.57;;;;;;;-1.07;86.64;100218.24;123383;1099;104332;-76
2024/01/12 01:32:18;;;;;;;44.57;19.10;;;;;;;-1.07;86.65;100218.24;123363;1098;104466;-76
2024/01/12 01:34:49;;;;;;;38.17;17.93;;;;;;;-1.06;86.62;100219.13;123194;1099;104341;-77
2024/01/12 01:37:20;;;;;;;46.37;20.43;;;;;;;-1.04;86.73;100220.14;123410;1099;104348;-77
2024/01/12 01:39:52;;;;;;;39.87;17.17;;;;;;;-1.03;86.68;100230.55;123593;1099;104198;-77
2024/01/12 01:42:23;;;;;;;41.77;18.07;;;;;;;-1.02;86.26;100224.64;123413;1099;104355;-76
2024/01/12 01:44:54;;;;;;;45.23;18.17;;;;;;;-1.02;86.44;100216.03;123406;1099;104794;-76
2024/01/12 01:47:26;;;;;;;46.33;19.37;;;;;;;-1.06;86.35;100225.20;123424;1099;104264;-77
2024/01/12 01:49:58;;;;;;;45.87;20.40;;;;;;;-1.09;86.45;100231.00;123138;1099;104357;-77
2024/01/12 01:52:30;;;;;;;45.20;19.23;;;;;;;-1.09;86.31;100242.99;123436;1099;104364;-77
2024/01/12 01:55:01;;;;;;;43.70;18.27;;;;;;;-1.11;86.74;100236.80;123424;1098;104320;-76
2024/01/12 01:57:34;;;;;;;41.70;19.20;;;;;;;-1.15;86.20;100229.64;123115;1099;104335;-76
2024/01/12 02:00:06;;;;;;;40.63;17.97;;;;;;;-1.16;86.30;100226.14;123414;1098;104345;-77
2024/01/12 02:02:43;;;;;;;41.93;19.00;;;;;;;-1.14;86.32;100214.31;123392;1099;104345;-77
2024/01/12 02:05:18;;;;;;;47.63;19.90;;;;;;;-1.14;86.31;100214.31;123506;1099;104226;-76
2024/01/12 02:07:49;;;;;;;38.27;14.90;;;;;;;-1.12;86.67;100233.34;123416;1099;104281;-77
2024/01/12 02:10:20;;;;;;;39.77;17.80;;;;;;;-1.11;86.42;100223.92;123410;1099;104790;-77
2024/01/12 02:12:52;;;;;;;42.43;20.47;;;;;;;-1.12;86.62;100224.73;123401;1099;104258;-77
2024/01/12 02:15:23;;;;;;;48.13;20.47;;;;;;;-1.10;85.95;100221.47;123481;1099;104274;-77
2024/01/12 02:17:54;;;;;;;41.40;18.20;;;;;;;-1.08;86.56;100221.59;123475;1098;104349;-77
2024/01/12 02:20:26;;;;;;;45.20;19.43;;;;;;;-1.04;85.95;100222.71;123481;1098;104325;-77
2024/01/12 02:22:57;;;;;;;42.90;19.43;;;;;;;-1.04;86.61;100218.48;123565;1099;104335;-77
2024/01/12 02:25:28;;;;;;;44.95;18.90;;;;;;;-1.02;86.07;100222.06;123373;1099;104274;-77
2024/01/12 02:27:59;;;;;;;41.20;18.20;;;;;;;-1.01;86.78;100222.95;123163;1099;104299;-75
2024/01/12 02:30:31;;;;;;;40.37;18.47;;;;;;;-1.01;86.23;100216.14;123474;1099;104354;-77
2024/01/12 02:33:08;;;;;;;39.20;17.37;;;;;;;-1.00;85.65;100222.19;123438;1099;104345;-77
2024/01/12 02:35:39;;;;;;;39.03;17.27;;;;;;;-0.99;86.38;100216.27;123218;1102;107973;-77
2024/01/12 02:38:10;;;;;;;44.13;18.07;;;;;;;-0.99;86.67;100200.80;123412;1099;104287;-76
2024/01/12 02:40:41;;;;;;;44.57;19.10;;;;;;;-0.99;86.27;100226.56;123374;1099;104277;-76
2024/01/12 02:43:13;;;;;;;46.97;20.83;;;;;;;-0.99;86.13;100218.84;123387;1099;104684;-77
2024/01/12 02:45:44;;;;;;;41.13;17.77;;;;;;;-0.98;86.08;100233.48;123388;1099;104345;-76
2024/01/12 02:48:15;;;;;;;43.20;19.67;;;;;;;-0.98;86.00;100223.19;123436;1099;104268;-76
2024/01/12 02:50:46;;;;;;;44.83;19.57;;;;;;;-0.99;86.13;100226.56;123428;1098;104270;-76
2024/01/12 02:53:17;;;;;;;46.50;18.90;;;;;;;-0.98;85.44;100230.91;123395;1099;104768;-76
2024/01/12 02:55:49;;;;;;;46.00;19.60;;;;;;;-0.99;86.50;100229.14;123383;1099;104361;-77
2024/01/12 02:58:20;;;;;;;40.50;16.97;;;;;;;-0.99;85.87;100230.03;123394;1099;104373;-76
2024/01/12 03:00:52;;;;;;;44.70;19.10;;;;;;;-0.99;85.99;100244.59;123130;1099;104320;-76
2024/01/12 03:03:23;;;;;;;41.87;19.60;;;;;;;-1.00;86.17;100245.36;123402;1098;104274;-76
2024/01/12 03:05:54;;;;;;;45.53;20.13;;;;;;;-0.99;86.55;100247.17;123415;1099;104350;-77
2024/01/12 03:08:25;;;;;;;45.93;20.60;;;;;;;-1.00;86.17;100248.83;123543;1099;104248;-77
2024/01/12 03:10:56;;;;;;;48.20;19.60;;;;;;;-0.99;85.79;100254.89;123535;1099;104354;-76
2024/01/12 03:13:28;;;;;;;49.13;21.17;;;;;;;-0.99;86.63;100248.05;123390;1099;104347;-76
2024/01/12 03:15:59;;;;;;;44.10;18.87;;;;;;;-0.99;86.25;100262.62;123376;1099;104319;-76
2024/01/12 03:18:31;;;;;;;48.00;21.00;;;;;;;-1.02;86.49;100252.08;123367;1099;104335;-77
2024/01/12 03:21:03;;;;;;;44.03;21.13;;;;;;;-1.06;86.01;100258.69;123439;1099;104281;-77
2024/01/12 03:23:35;;;;;;;43.70;19.27;;;;;;;-1.07;86.27;100261.14;123428;1099;104920;-77
2024/01/12 03:26:06;;;;;;;47.73;19.90;;;;;;;-1.06;86.41;100265.48;123374;1099;104295;-77
2024/01/12 03:28:37;;;;;;;49.10;20.67;;;;;;;-1.07;85.95;100258.56;123423;1098;104284;-76
2024/01/12 03:31:09;;;;;;;44.17;20.77;;;;;;;-1.05;86.76;100275.02;123307;1099;104367;-77
2024/01/12 03:33:40;;;;;;;44.33;19.03;;;;;;;-1.03;86.86;100270.87;123397;1099;104293;-77
2024/01/12 03:36:14;;;;;;;41.50;18.27;;;;;;;-1.03;86.45;100265.73;123367;1099;104402;-77
2024/01/12 03:38:45;;;;;;;43.97;19.93;;;;;;;-1.02;86.53;100264.96;123519;1098;104350;-76
2024/01/12 03:41:17;;;;;;;42.10;18.40;;;;;;;-0.99;86.26;100278.08;123574;1098;104274;-76
2024/01/12 03:43:48;;;;;;;44.43;19.70;;;;;;;-1.00;86.04;100272.00;123433;1099;104303;-76
2024/01/12 03:46:19;;;;;;;42.07;18.07;;;;;;;-0.99;86.11;100272.92;123197;1099;104275;-76
2024/01/12 03:48:50;;;;;;;46.47;19.20;;;;;;;-0.97;86.61;100276.51;123377;1098;104357;-77
2024/01/12 03:51:21;;;;;;;47.37;20.47;;;;;;;-0.96;86.26;100286.05;123371;1099;104258;-77
2024/01/12 03:53:53;;;;;;;45.83;20.13;;;;;;;-0.93;85.83;100286.28;123675;1099;104220;-77
2024/01/12 03:56:24;;;;;;;45.70;20.13;;;;;;;-0.94;85.27;100302.51;123415;1098;104277;-76
2024/01/12 03:58:55;;;;;;;40.63;18.43;;;;;;;-0.93;85.67;100304.31;123138;1099;104323;-77
2024/01/12 04:01:28;;;;;;;42.80;18.00;;;;;;;-0.93;86.23;100314.62;123388;1099;104328;-77
2024/01/12 04:04:02;;;;;;;37.87;17.53;;;;;;;-0.94;85.99;100318.84;123089;1099;104284;-77
2024/01/12 04:06:34;;;;;;;35.47;15.07;;;;;;;-0.94;86.12;100364.33;123604;1099;104422;-76
2024/01/12 04:09:05;;;;;;;42.07;18.10;;;;;;;-0.99;85.94;100355.34;123146;1099;104750;-77
2024/01/12 04:11:37;;;;;;;22.20;7.60;;;;;;;-1.10;83.71;100378.56;123138;1099;104226;-77
2024/01/12 04:14:08;;;;;;;18.10;5.93;;;;;;;-1.29;83.31;100376.19;123408;1099;104419;-77
2024/01/12 04:16:39;;;;;;;14.07;5.07;;;;;;;-1.41;82.96;100380.34;123473;1099;104300;-77
2024/01/12 04:19:10;;;;;;;12.80;4.90;;;;;;;-1.48;83.15;100403.77;123132;1099;104300;-77
2024/01/12 04:21:42;;;;;;;16.47;4.43;;;;;;;-1.60;81.33;100395.97;123406;1099;104335;-76
2024/01/12 04:24:13;;;;;;;11.20;3.45;;;;;;;-1.67;83.22;100398.80;123530;1099;104347;-78
2024/01/12 04:26:45;;;;;;;10.60;3.60;;;;;;;-1.69;82.25;100398.67;123370;1099;104301;-77
2024/01/12 04:29:16;;;;;;;7.97;3.80;;;;;;;-1.73;81.97;100404.36;123332;1099;104313;-77
2024/01/12 04:31:47;;;;;;;12.73;4.23;;;;;;;-1.74;82.52;100405.12;123170;1099;104257;-78
2024/01/12 04:34:18;;;;;;;11.87;4.77;;;;;;;-1.76;82.03;100408.32;123118;1099;104293;-77
2024/01/12 04:36:49;;;;;;;15.70;4.13;;;;;;;-1.82;82.63;100409.63;123393;1099;104274;-78
2024/01/12 04:39:21;;;;;;;7.37;3.63;;;;;;;-1.88;82.05;100413.37;123111;1099;104299;-78
2024/01/12 04:41:53;;;;;;;8.10;2.93;;;;;;;-1.93;79.94;100425.84;123404;1099;104434;-77
2024/01/12 04:44:24;;;;;;;4.50;2.07;;;;;;;-2.04;79.07;100442.94;123397;1099;104341;-77
2024/01/12 04:46:55;;;;;;;4.17;2.23;;;;;;;-2.16;78.56;100449.61;123250;1099;104274;-78
2024/01/12 04:49:26;;;;;;;6.15;2.30;;;;;;;-2.25;78.63;100457.42;123109;1099;104935;-77
2024/01/12 04:51:58;;;;;;;5.13;1.67;;;;;;;-2.29;78.64;100454.45;123121;1099;104737;-77
2024/01/12 04:54:29;;;;;;;6.87;2.10;;;;;;;-2.35;77.92;100472.84;123395;1099;104322;-77
2024/01/12 04:57:00;;;;;;;5.53;2.00;;;;;;;-2.42;78.23;100478.20;123410;1099;104245;-78
2024/01/12 04:59:32;;;;;;;6.93;1.80;;;;;;;-2.45;77.00;100480.52;123118;1099;104613;-77
2024/01/12 05:02:03;;;;;;;8.50;2.37;;;;;;;-2.48;77.09;100482.81;123480;1099;104243;-77
2024/01/12 05:04:34;;;;;;;6.70;2.37;;;;;;;-2.52;75.56;100499.64;123416;1098;104397;-77
2024/01/12 05:07:05;;;;;;;7.23;2.53;;;;;;;-2.55;76.70;100499.38;123423;1099;104286;-77
2024/01/12 05:09:37;;;;;;;13.20;3.33;;;;;;;-2.59;76.58;100510.13;123157;1099;104269;-78
2024/01/12 05:12:09;;;;;;;10.67;3.73;;;;;;;-2.62;75.89;100521.03;123381;1099;104326;-77
2024/01/12 05:14:41;;;;;;;9.43;2.60;;;;;;;-2.66;75.93;100521.55;123579;1099;104374;-78
2024/01/12 05:17:12;;;;;;;11.00;3.50;;;;;;;-2.67;76.68;100523.98;123401;1099;104358;-78
2024/01/12 05:19:43;;;;;;;7.73;2.67;;;;;;;-2.67;75.07;100529.13;123390;1099;104472;-78
2024/01/12 05:22:21;;;;;;;12.70;3.07;;;;;;;-2.69;76.27;100530.66;123289;1099;104353;-78
2024/01/12 05:24:54;;;;;;;8.27;2.63;;;;;;;-2.67;77.05;100536.83;123348;1099;104251;-76
2024/01/12 05:27:26;;;;;;;8.60;2.80;;;;;;;-2.68;74.81;100556.48;123449;1099;104214;-78
2024/01/12 05:29:57;;;;;;;7.77;2.50;;;;;;;-2.71;75.93;100551.97;123281;1099;104197;-78
2024/01/12 05:32:28;;;;;;;9.60;3.00;;;;;;;-2.71;75.95;100562.24;123420;1099;104730;-78
2024/01/12 05:34:59;;;;;;;5.20;2.37;;;;;;;-2.76;74.64;100566.08;123570;1099;104270;-77
2024/01/12 05:37:30;;;;;;;7.00;2.70;;;;;;;-2.80;75.67;100569.13;123290;1099;104274;-79
2024/01/12 05:40:02;;;;;;;6.73;2.37;;;;;;;-2.82;74.10;100586.08;123611;1099;104319;-77
2024/01/12 05:42:34;;;;;;;8.37;3.20;;;;;;;-2.85;74.15;100597.71;123217;1099;105468;-78
2024/01/12 05:45:06;;;;;;;8.60;2.90;;;;;;;-2.88;74.72;100600.93;123561;1099;104386;-78
2024/01/12 05:47:37;;;;;;;7.03;2.50;;;;;;;-2.87;74.64;100607.84;123840;1099;104270;-78
2024/01/12 05:50:09;;;;;;;5.87;2.70;;;;;;;-2.89;73.16;100612.84;123465;1099;104223;-78
2024/01/12 05:52:41;;;;;;;6.20;2.40;;;;;;;-2.91;73.13;100611.81;123462;1099;104246;-78
2024/01/12 05:55:12;;;;;;;9.63;3.10;;;;;;;-2.89;75.12;100609.38;124217;1098;104910;-78
2024/01/12 05:57:43;;;;;;;10.53;3.30;;;;;;;-2.92;73.88;100610.00;123720;1099;104268;-78
2024/01/12 06:00:16;;;;;;;10.57;3.37;;;;;;;-2.92;73.93;100630.54;124106;1099;104267;-78
2024/01/12 06:02:47;;;;;;;12.90;4.97;;;;;;;-2.95;73.29;100637.96;125504;1098;104696;-76
2024/01/12 06:05:18;;;;;;;18.40;7.27;;;;;;;-2.95;73.20;100647.34;123772;1099;104236;-78
2024/01/12 06:07:49;;;;;;;17.30;6.85;;;;;;;-2.93;72.91;100654.44;124142;1099;104386;-78
2024/01/12 06:10:23;;;;;;;16.37;6.43;;;;;;;-2.90;74.41;100662.42;123455;1099;104229;-78
2024/01/12 06:12:56;;;;;;;12.53;4.57;;;;;;;-2.86;73.60;100671.30;123742;1099;104304;-78
2024/01/12 06:15:28;;;;;;;8.73;3.70;;;;;;;-2.90;70.03;100672.69;124021;1099;104281;-77
2024/01/12 06:17:59;;;;;;;7.47;2.33;;;;;;;-2.95;69.73;100679.05;123993;1099;104342;-76
2024/01/12 06:20:31;;;;;;;7.60;2.40;;;;;;;-2.99;69.52;100684.69;123830;1099;104383;-78
2024/01/12 06:23:02;;;;;;;8.70;4.00;;;;;;;-3.03;70.80;100697.98;123845;1099;104264;-76
2024/01/12 06:25:36;;;;;;;7.67;3.40;;;;;;;-3.02;69.92;100701.45;124140;1099;104322;-76
2024/01/12 06:28:08;;;;;;;14.23;4.37;;;;;;;-3.03;69.20;100709.94;123908;1098;104344;-76
2024/01/12 06:30:39;;;;;;;10.37;3.50;;;;;;;-3.02;69.56;100719.42;124166;1099;104361;-77
2024/01/12 06:33:14;;;;;;;14.03;2.67;;;;;;;-3.03;66.32;100728.80;124337;1099;104242;-76
2024/01/12 06:35:45;;;;;;;8.20;3.17;;;;;;;-3.07;67.39;100730.19;124230;1099;104672;-76
2024/01/12 06:38:16;;;;;;;11.20;3.37;;;;;;;-3.03;68.31;100733.94;123981;1099;104242;-77
2024/01/12 06:40:47;;;;;;;14.67;4.07;;;;;;;-3.05;66.58;100743.16;124267;1099;104216;-76
2024/01/12 06:43:19;;;;;;;6.70;3.03;;;;;;;-3.09;65.88;100741.95;124469;1099;104169;-77
2024/01/12 06:45:50;;;;;;;9.03;3.60;;;;;;;-3.12;67.93;100745.91;124615;1098;102663;-76
2024/01/12 06:48:21;;;;;;;11.80;4.20;;;;;;;-3.12;68.83;100744.23;124104;1099;104683;-77
2024/01/12 06:50:53;;;;;;;7.20;3.13;;;;;;;-3.07;68.67;100757.50;124285;1098;104168;-76
2024/01/12 06:53:24;;;;;;;10.67;3.17;;;;;;;-2.98;67.84;100753.23;124533;1099;104253;-76
2024/01/12 06:55:57;;;;;;;12.40;2.80;;;;;;;-2.82;67.59;100758.16;124606;1099;104184;-77
2024/01/12 06:58:28;;;;;;;12.30;3.23;;;;;;;-2.76;66.28;100763.86;124742;1099;104357;-76
2024/01/12 07:00:59;;;;;;;34.30;10.03;;;;;;;-2.77;66.63;100761.14;124225;1099;104157;-77
2024/01/12 07:03:31;;;;;;;35.65;10.35;;;;;;;-2.74;66.81;100758.86;124353;1099;104169;-76
2024/01/12 07:06:03;;;;;;;20.40;6.43;;;;;;;-2.79;65.32;100754.94;124002;1099;104358;-76
2024/01/12 07:08:34;;;;;;;8.37;2.73;;;;;;;-2.84;62.51;100767.36;124303;1099;104198;-76
2024/01/12 07:11:07;;;;;;;8.47;3.10;;;;;;;-2.94;64.86;100774.98;124382;1099;118578;-76
2024/01/12 07:13:39;;;;;;;9.63;2.57;;;;;;;-2.91;62.89;100783.87;124595;1099;104269;-76
2024/01/12 07:16:10;;;;;;;10.40;2.43;;;;;;;-2.90;62.82;100801.09;124263;1099;104245;-76
2024/01/12 07:18:41;;;;;;;8.03;3.20;;;;;;;-2.92;62.57;100794.89;124812;1099;103362;-76
2024/01/12 07:21:14;;;;;;;6.97;2.93;;;;;;;-2.91;62.71;100806.98;124539;1099;103029;-76
2024/01/12 07:23:45;;;;;;;8.03;2.60;;;;;;;-2.94;62.74;100822.09;124977;1098;104171;-76
2024/01/12 07:26:16;;;;;;;6.60;2.13;;;;;;;-3.10;59.24;100835.16;124510;1099;104204;-77
2024/01/12 07:28:47;;;;;;;13.00;2.60;;;;;;;-3.23;59.40;100828.70;124855;1099;104281;-76
2024/01/12 07:31:22;;;;;;;8.00;2.10;;;;;;;-3.29;60.17;100826.45;124452;1099;104249;-76
2024/01/12 07:33:54;;;;;;;8.27;2.50;;;;;;;-3.27;61.60;100828.41;124744;1099;102696;-76
2024/01/12 07:36:25;;;;;;;8.63;2.77;;;;;;;-3.26;59.83;100829.30;125110;1099;102696;-76
2024/01/12 07:38:59;;;;;;;6.80;2.60;;;;;;;-3.33;59.84;100850.03;125000;1099;102298;-76
2024/01/12 07:41:34;;;;;;;7.87;2.23;;;;;;;-3.39;58.44;100873.42;124844;1098;104245;-76
2024/01/12 07:44:07;;;;;;;6.50;2.20;;;;;;;-3.45;59.49;100860.89;124719;1098;104242;-76
2024/01/12 07:46:41;;;;;;;6.60;2.20;;;;;;;-3.54;58.70;100862.56;124698;1099;104166;-76
2024/01/12 07:49:12;;;;;;;6.72;2.67;;;;;;;-3.66;59.17;100869.98;124539;1099;104245;-77
2024/01/12 07:51:44;;;;;;;11.07;2.77;;;;;;;-3.74;56.18;100882.80;125228;1099;104147;-76
2024/01/12 07:54:16;;;;;;;6.60;1.93;;;;;;;-3.86;56.61;100877.39;124879;1099;104153;-76
2024/01/12 07:56:47;;;;;;;4.63;2.50;;;;;;;-3.94;56.76;100880.83;123948;1099;104200;-76
2024/01/12 07:59:20;;;;;;;4.77;2.37;;;;;;;-4.07;54.84;100881.28;125126;1099;104242;-76
2024/01/12 08:01:55;;;;;;;7.43;2.40;;;;;;;-4.19;57.18;100889.56;125108;1099;102725;-76
2024/01/12 08:04:26;;;;;;;10.80;2.60;;;;;;;-4.31;57.46;100888.33;124359;1099;104316;-76
2024/01/12 08:06:59;;;;;;;6.37;1.97;;;;;;;-4.30;57.66;100900.41;124779;1099;103392;-76
2024/01/12 08:09:30;;;;;;;6.97;2.17;;;;;;;-4.11;59.75;100900.59;124599;1099;104249;-76
2024/01/12 08:12:03;;;;;;;5.57;2.37;;;;;;;-4.02;56.71;100905.70;124473;1099;104185;-76
2024/01/12 08:14:34;;;;;;;5.77;2.33;;;;;;;-4.13;56.93;100904.63;124473;1098;104172;-76
2024/01/12 08:19:56;;;;;;;4.40;2.17;;;;;;;-4.18;56.74;100910.96;124609;1099;103170;-77
2024/01/12 08:22:32;;;;;;;6.00;1.83;;;;;;;-4.13;57.70;100927.70;124393;1099;104254;-77
2024/01/12 08:25:03;;;;;;;5.90;2.00;;;;;;;-4.25;58.02;100923.93;124530;1098;104272;-77
2024/01/12 08:27:52;;;;;;;6.37;2.50;;;;;;;-4.35;58.96;100929.76;124820;1099;104204;-77
2024/01/12 08:30:24;;;;;;;5.53;2.23;;;;;;;-4.13;58.72;100935.38;124392;1098;104280;-77
2024/01/12 08:32:57;;;;;;;5.67;2.50;;;;;;;-3.98;58.87;100947.19;124698;1099;102322;-78
2024/01/12 08:35:39;;;;;;;5.80;2.20;;;;;;;-3.95;57.13;100956.85;125025;1099;102366;-77
2024/01/12 08:38:11;;;;;;;7.17;2.40;;;;;;;-3.87;58.57;100949.93;124582;1099;104176;-77
2024/01/12 08:40:43;;;;;;;7.23;2.50;;;;;;;-3.84;57.79;100950.23;123789;1099;104248;-77
2024/01/12 08:43:17;;;;;;;5.05;2.40;;;;;;;-3.84;55.77;100945.11;124301;1099;108528;-77
2024/01/12 08:45:48;;;;;;;7.47;2.20;;;;;;;-3.95;57.73;100950.83;124455;1099;104204;-78
2024/01/12 08:48:24;;;;;;;6.47;2.40;;;;;;;-4.01;55.71;100946.88;124210;1099;104230;-78
2024/01/12 08:50:58;;;;;;;12.67;3.10;;;;;;;-4.05;56.84;100957.59;124236;1099;103059;-77
2024/01/12 08:53:29;;;;;;;7.07;2.50;;;;;;;-3.98;57.02;100953.98;124288;1099;118438;-78
2024/01/12 08:56:01;;;;;;;6.57;2.10;;;;;;;-4.03;52.78;100978.25;124389;1099;104351;-77
2024/01/12 08:58:37;;;;;;;8.95;2.52;;;;;;;-4.13;56.26;100957.56;124270;1099;104251;-77
2024/01/12 09:01:10;;;;;;;5.77;2.50;;;;;;;-4.12;55.94;100974.77;124215;1099;104307;-77
2024/01/12 09:03:45;;;;;;;5.60;2.43;;;;;;;-4.12;55.89;100977.33;124408;1099;104169;-77
2024/01/12 09:06:23;;;;;;;6.20;2.80;;;;;;;-4.18;57.29;100962.22;124325;1099;104310;-77
2024/01/12 09:09:01;;;;;;;;;;;;;;;-4.15;55.81;100972.78;124382;1099;104332;-77
2024/01/12 09:11:32;;;;;;;5.60;2.37;;;;;;;-4.13;55.27;100970.38;124505;1099;104191;-77
2024/01/12 09:14:07;;;;;;;8.93;2.83;;;;;;;-4.18;55.13;100964.78;124624;1098;104252;-77
2024/01/12 09:16:41;;;;;;;8.43;2.70;;;;;;;-4.28;54.99;100962.95;124077;1099;102664;-78
2024/01/12 09:19:20;;;;;;;8.03;2.60;;;;;;;-4.27;55.84;100969.90;124227;1099;104201;-78
2024/01/12 09:22:11;;;;;;;5.70;2.90;;;;;;;-4.20;55.38;100961.17;124289;1099;104191;-77
2024/01/12 09:25:53;;;;;;;6.23;2.40;;;;;;;-4.23;55.93;100964.31;124203;1099;104319;-78
2024/01/12 09:28:34;;;;;;;8.13;2.80;;;;;;;-4.09;56.27;100975.97;124628;1099;104357;-77
2024/01/12 09:31:05;;;;;;;7.53;2.73;;;;;;;-3.97;56.58;100981.44;123661;1099;104230;-78
2024/01/12 09:33:37;;;;;;;9.13;2.33;;;;;;;-3.97;54.73;100990.03;124255;1099;104229;-77
2024/01/12 09:36:09;;;;;;;6.80;2.80;;;;;;;-4.07;55.70;100977.02;124326;1099;104313;-77
2024/01/12 09:38:40;;;;;;;9.33;2.90;;;;;;;-4.12;55.74;100973.09;124500;1099;104277;-77
2024/01/12 09:41:12;;;;;;;6.50;2.40;;;;;;;-4.19;56.40;100970.64;124075;1098;104189;-78
2024/01/12 09:43:46;;;;;;;9.37;2.80;;;;;;;-4.13;56.04;100970.38;124209;1098;104230;-77
2024/01/12 09:46:25;;;;;;;10.35;2.90;;;;;;;-3.97;56.49;100964.39;126020;1099;102991;-78
2024/01/12 09:48:56;;;;;;;12.47;4.00;;;;;;;-3.91;56.01;100965.75;124350;1099;104690;-77
2024/01/12 09:51:31;;;;;;;11.63;3.20;;;;;;;-3.97;56.72;100971.19;124633;1099;102708;-78
2024/01/12 09:54:05;;;;;;;12.98;3.92;;;;;;;-3.95;57.11;100972.23;124766;1099;104169;-78
2024/01/12 09:56:42;;;;;;;6.83;3.00;;;;;;;-3.89;56.11;100975.42;124614;1099;104322;-77
2024/01/12 09:59:13;;;;;;;8.07;3.00;;;;;;;-3.93;55.24;100985.21;124804;1099;104176;-77
2024/01/12 10:01:45;;;;;;;6.70;3.17;;;;;;;-4.06;54.95;100983.97;124741;1099;104274;-77
2024/01/12 10:04:16;;;;;;;8.70;3.43;;;;;;;-4.10;56.32;100986.06;124501;1099;104245;-78
2024/01/12 10:06:48;;;;;;;6.80;3.20;;;;;;;-4.14;55.50;100984.86;124206;1099;104409;-77
2024/01/12 10:09:19;;;;;;;7.73;3.20;;;;;;;-4.19;53.93;100993.71;123975;1099;104166;-77
2024/01/12 10:11:53;;;;;;;5.67;3.00;;;;;;;-4.25;55.02;100993.13;124123;1098;104204;-77
2024/01/12 10:14:25;;;;;;;7.35;3.02;;;;;;;-4.23;53.80;100994.17;124311;1098;103204;-77
2024/01/12 10:16:57;;;;;;;9.37;2.97;;;;;;;-4.30;54.46;100990.09;124385;1099;105673;-78
2024/01/12 10:19:28;;;;;;;12.37;4.40;;;;;;;-4.33;54.25;100979.52;123894;1099;104290;-77
2024/01/12 10:22:00;;;;;;;8.53;2.60;;;;;;;-4.42;53.27;100976.91;124500;1099;102214;-78
2024/01/12 10:24:32;;;;;;;6.93;2.80;;;;;;;-4.48;52.51;100970.27;124533;1099;104215;-78
2024/01/12 10:27:05;;;;;;;14.10;4.00;;;;;;;-4.49;53.39;100969.33;124663;1098;104243;-77
2024/01/12 10:29:38;;;;;;;13.97;3.83;;;;;;;-4.58;52.16;100970.95;124554;1099;104293;-77
2024/01/12 10:32:11;;;;;;;6.35;2.75;;;;;;;-4.65;53.14;100965.97;124663;1099;104194;-78
2024/01/12 10:34:43;;;;;;;6.13;2.20;;;;;;;-4.65;52.56;100973.65;124748;1099;101817;-78
2024/01/12 10:37:17;;;;;;;11.67;3.23;;;;;;;-4.65;53.75;100966.86;124376;1099;104262;-77
2024/01/12 10:39:55;;;;;;;8.03;2.77;;;;;;;-4.64;51.79;100978.00;124481;1099;104287;-77
2024/01/12 10:42:28;;;;;;;9.57;2.90;;;;;;;-4.69;52.37;100985.20;124424;1099;104207;-78
2024/01/12 10:45:05;;;;;;;5.65;2.90;;;;;;;-4.71;52.81;101002.97;124787;1099;104194;-77
2024/01/12 10:47:44;;;;;;;5.90;2.63;;;;;;;-4.68;52.77;100986.13;124083;1099;104178;-77
2024/01/12 10:50:18;;;;;;;8.00;2.20;;;;;;;-4.72;51.77;100993.50;124588;1098;103380;-77
2024/01/12 10:53:02;;;;;;;5.83;2.20;;;;;;;-4.76;53.79;100996.47;125173;1099;104207;-77
2024/01/12 10:55:35;;;;;;;7.23;2.87;;;;;;;-4.61;53.39;101004.86;124578;1099;105451;-77
2024/01/12 10:58:08;;;;;;;5.67;2.27;;;;;;;-4.60;51.91;100996.41;125060;1099;104238;-77
2024/01/12 11:00:39;;;;;;;8.40;2.70;;;;;;;-4.67;52.74;100993.05;124664;1099;104267;-77
2024/01/12 11:03:11;;;;;;;10.83;3.50;;;;;;;-4.68;52.90;100991.25;124586;1099;102106;-77
2024/01/12 11:05:51;;;;;;;8.57;3.13;;;;;;;-4.70;53.77;100988.53;124967;1099;104105;-78
2024/01/12 11:08:24;;;;;;;6.27;2.43;;;;;;;-4.66;53.05;101002.55;125160;1099;103638;-78
2024/01/12 11:10:59;;;;;;;6.95;2.72;;;;;;;-4.65;53.57;101001.81;124883;1099;102871;-78
2024/01/12 11:13:30;;;;;;;9.23;3.60;;;;;;;-4.68;52.88;101004.06;124810;1099;104239;-78
2024/01/12 11:16:03;;;;;;;9.37;3.77;;;;;;;-4.72;53.01;101003.73;125023;1099;104306;-77
2024/01/12 11:18:36;;;;;;;8.37;2.90;;;;;;;-4.67;53.08;100993.05;125101;1099;104166;-78
2024/01/12 11:21:09;;;;;;;8.23;2.80;;;;;;;-4.65;54.07;101002.71;125096;1099;102946;-78
2024/01/12 11:23:44;;;;;;;5.03;2.30;;;;;;;-4.61;53.89;100989.48;124383;1099;104216;-78
2024/01/12 11:26:19;;;;;;;7.23;2.30;;;;;;;-4.64;53.16;100993.36;124473;1099;104291;-77
2024/01/12 11:28:58;;;;;;;4.57;2.20;;;;;;;-4.65;53.16;100997.59;124609;1099;104169;-78